createdAt,value
2019-02-08T00:00:10.090Z,93591.67
2019-02-08T00:00:37.387Z,93599.69
2019-02-08T00:01:00.772Z,93598.98
2019-02-08T00:01:24.452Z,93594.09
2019-02-08T00:01:47.208Z,93594.18
2019-02-08T00:02:10.139Z,93594.47
2019-02-08T00:02:33.069Z,93599.17
2019-02-08T00:02:55.896Z,93595.39
2019-02-08T00:03:18.685Z,93598.16
2019-02-08T00:03:41.813Z,93598.89
2019-02-08T00:04:04.547Z,93597.59
2019-02-08T00:04:27.455Z,93598.78
2019-02-08T00:04:50.382Z,93598.67
2019-02-08T00:05:13.255Z,93595.86
2019-02-08T00:05:36.173Z,93600.98
2019-02-08T00:05:59.091Z,93596.36
2019-02-08T00:06:21.963Z,93595.36
2019-02-08T00:06:44.732Z,93595.98
2019-02-08T00:07:07.507Z,93595.48
2019-02-08T00:07:30.723Z,93597.68
2019-02-08T00:07:53.573Z,93598.39
2019-02-08T00:08:16.408Z,93598.39
2019-02-08T00:08:39.244Z,93594.88
2019-02-08T00:09:02.043Z,93594.66
2019-02-08T00:09:24.930Z,93595.56
2019-02-08T00:09:47.801Z,93593.96
2019-02-08T00:10:10.588Z,93597.56
2019-02-08T00:10:33.448Z,93594.97
2019-02-08T00:10:56.658Z,93596.36
2019-02-08T00:11:19.580Z,93593.75
2019-02-08T00:11:42.490Z,93591.23
2019-02-08T00:12:05.337Z,93593.16
2019-02-08T00:12:28.528Z,93594.55
2019-02-08T00:12:51.487Z,93594.66
2019-02-08T00:13:14.280Z,93596.66
2019-02-08T00:13:37.027Z,93591.77
2019-02-08T00:13:59.877Z,93599.28
2019-02-08T00:14:23.109Z,93592.06
2019-02-08T00:14:45.909Z,93591.45
2019-02-08T00:15:09.947Z,93590.85
2019-02-08T00:15:32.813Z,93597.48
2019-02-08T00:15:55.957Z,93598.87
2019-02-08T00:16:18.856Z,93592.56
2019-02-08T00:16:42.508Z,93590.95
2019-02-08T00:17:05.242Z,93592.06
2019-02-08T00:17:28.107Z,93595.38
2019-02-08T00:17:51.348Z,93595.67
2019-02-08T00:18:14.428Z,93592.88
2019-02-08T00:18:37.152Z,93593.36
2019-02-08T00:19:00.447Z,93592.75
2019-02-08T00:19:23.296Z,93595.77
2019-02-08T00:19:46.370Z,93591.35
2019-02-08T00:20:09.231Z,93593.75
2019-02-08T00:20:31.981Z,93590.55
2019-02-08T00:20:54.849Z,93594.64
2019-02-08T00:21:17.753Z,93591.36
2019-02-08T00:21:40.706Z,93592.66
2019-02-08T00:22:03.540Z,93589.35
2019-02-08T00:22:26.695Z,93594.36
2019-02-08T00:22:49.609Z,93595.66
2019-02-08T00:23:12.408Z,93592.55
2019-02-08T00:23:35.938Z,93591.84
2019-02-08T00:23:58.749Z,93597.75
2019-02-08T00:24:21.505Z,93591.95
2019-02-08T00:24:44.876Z,93597.87
2019-02-08T00:25:07.811Z,93592.84
2019-02-08T00:25:30.612Z,93591.65
2019-02-08T00:25:54.650Z,93590.76
2019-02-08T00:26:17.471Z,93590.66
2019-02-08T00:26:40.310Z,93590.27
2019-02-08T00:27:03.551Z,93597.17
2019-02-08T00:27:26.376Z,93594.16
2019-02-08T00:27:49.306Z,93590.55
2019-02-08T00:28:12.592Z,93595.56
2019-02-08T00:28:35.390Z,93589.64
2019-02-08T00:28:58.270Z,93589.76
2019-02-08T00:29:21.917Z,93587.45
2019-02-08T00:29:44.715Z,93587.97
2019-02-08T00:30:07.680Z,93591.67
2019-02-08T00:30:31.333Z,93587.38
2019-02-08T00:30:54.146Z,93588.56
2019-02-08T00:31:17.057Z,93586.86
2019-02-08T00:31:40.176Z,93588.75
2019-02-08T00:32:02.913Z,93591.95
2019-02-08T00:32:25.869Z,93583.13
2019-02-08T00:32:48.813Z,93588.64
2019-02-08T00:33:11.709Z,93586.54
2019-02-08T00:33:34.596Z,93583.84
2019-02-08T00:33:58.065Z,93580.74
2019-02-08T00:34:20.876Z,93584.24
2019-02-08T00:34:43.698Z,93583.65
2019-02-08T00:35:06.988Z,93585.55
2019-02-08T00:35:29.828Z,93586.55
2019-02-08T00:35:54.530Z,93587.14
2019-02-08T00:36:17.016Z,93586.34
2019-02-08T00:36:39.814Z,93587.97
2019-02-08T00:37:03.029Z,93587.34
2019-02-08T00:37:26.467Z,93590.05
2019-02-08T00:37:49.381Z,93591.86
2019-02-08T00:38:12.227Z,93588.75
2019-02-08T00:38:35.334Z,93594.97
2019-02-08T00:38:58.129Z,93593.16
2019-02-08T00:39:20.908Z,93590.35
2019-02-08T00:39:44.400Z,93592.17
2019-02-08T00:40:07.264Z,93594.25
2019-02-08T00:40:30.168Z,93597.87
2019-02-08T00:40:53.528Z,93593.34
2019-02-08T00:41:16.330Z,93595.27
2019-02-08T00:41:39.212Z,93590.76
2019-02-08T00:42:02.688Z,93593.56
2019-02-08T00:42:25.556Z,93594.97
2019-02-08T00:42:48.348Z,93593.56
2019-02-08T00:43:11.848Z,93593.17
2019-02-08T00:43:34.690Z,93594.05
2019-02-08T00:43:57.648Z,93591.25
2019-02-08T00:44:20.769Z,93592.17
2019-02-08T00:44:43.528Z,93593.26
2019-02-08T00:45:06.681Z,93593.48
2019-02-08T00:45:29.987Z,93590.16
2019-02-08T00:45:52.848Z,93588.97
2019-02-08T00:46:15.566Z,93592.36
2019-02-08T00:46:38.750Z,93592.36
2019-02-08T00:47:01.515Z,93587.04
2019-02-08T00:47:24.379Z,93590.27
2019-02-08T00:47:48.023Z,93594.57
2019-02-08T00:48:10.769Z,93593.55
2019-02-08T00:48:33.629Z,93592.88
2019-02-08T00:48:57.489Z,93593.98
2019-02-08T00:49:20.452Z,93595.16
2019-02-08T00:49:43.228Z,93596.67
2019-02-08T00:50:06.608Z,93600.17
2019-02-08T00:50:29.428Z,93595.78
2019-02-08T00:50:52.288Z,93588.95
2019-02-08T00:51:15.819Z,93589.75
2019-02-08T00:51:38.689Z,93592.25
2019-02-08T00:52:01.468Z,93592.66
2019-02-08T00:52:24.488Z,93590.34
2019-02-08T00:52:47.697Z,93586.84
2019-02-08T00:53:10.775Z,93589.03
2019-02-08T00:53:33.807Z,93589.92
2019-02-08T00:53:56.638Z,93590.16
2019-02-08T00:54:19.528Z,93589.14
2019-02-08T00:54:42.976Z,93595.95
2019-02-08T00:55:05.848Z,93593.77
2019-02-08T00:55:28.625Z,93589.55
2019-02-08T00:55:52.128Z,93591.67
2019-02-08T00:56:14.989Z,93594.06
2019-02-08T00:56:38.308Z,93593.36
2019-02-08T00:57:01.937Z,93594.25
2019-02-08T00:57:24.929Z,93597.38
2019-02-08T00:57:47.829Z,93593.97
2019-02-08T00:58:11.529Z,93597.27
2019-02-08T00:58:35.288Z,93590.03
2019-02-08T00:58:58.218Z,93588.23
2019-02-08T00:59:21.584Z,93595.25
2019-02-08T00:59:44.368Z,93592.76
2019-02-08T01:00:07.229Z,93589.14
2019-02-08T01:00:30.532Z,93595.95
2019-02-08T01:00:53.469Z,93596.25
2019-02-08T01:01:16.317Z,93590.34
2019-02-08T01:01:40.030Z,93590.75
2019-02-08T01:02:02.749Z,93596.96
2019-02-08T01:02:25.667Z,93590.64
2019-02-08T01:02:49.137Z,93592.74
2019-02-08T01:03:11.948Z,93593.25
2019-02-08T01:03:34.852Z,93593.04
2019-02-08T01:03:58.569Z,93594.22
2019-02-08T01:04:21.409Z,93592.03
2019-02-08T01:04:44.228Z,93591.23
2019-02-08T01:05:07.838Z,93590.14
2019-02-08T01:05:31.268Z,93590.42
2019-02-08T01:05:54.148Z,93596.55
2019-02-08T01:06:17.527Z,93594.14
2019-02-08T01:06:40.896Z,93590.05
2019-02-08T01:07:03.717Z,93595.78
2019-02-08T01:07:27.808Z,93591.37
2019-02-08T01:07:50.588Z,93590.46
2019-02-08T01:08:13.548Z,93595.86
2019-02-08T01:08:36.710Z,93594.44
2019-02-08T01:08:59.548Z,93594.44
2019-02-08T01:09:22.430Z,93597.77
2019-02-08T01:09:47.447Z,93601.77
2019-02-08T01:10:10.747Z,93593.14
2019-02-08T01:10:33.612Z,93591.45
2019-02-08T01:10:57.309Z,93595.36
2019-02-08T01:11:20.470Z,93595.25
2019-02-08T01:11:43.629Z,93595.95
2019-02-08T01:12:06.468Z,93591.73
2019-02-08T01:12:29.270Z,93594.93
2019-02-08T01:12:52.208Z,93593.14
2019-02-08T01:13:15.729Z,93591.75
2019-02-08T01:13:39.188Z,93591.84
2019-02-08T01:14:01.933Z,93588.34
2019-02-08T01:14:24.869Z,93591.23
2019-02-08T01:14:47.731Z,93584.34
2019-02-08T01:15:10.649Z,93590.16
2019-02-08T01:15:34.048Z,93585.32
2019-02-08T01:15:56.989Z,93583.42
2019-02-08T01:16:19.829Z,93583.92
2019-02-08T01:16:43.051Z,93581.44
2019-02-08T01:17:07.528Z,93580.12
2019-02-08T01:17:30.531Z,93581.64
2019-02-08T01:17:53.552Z,93586.44
2019-02-08T01:18:16.567Z,93586.83
2019-02-08T01:18:39.469Z,93585.65
2019-02-08T01:19:02.323Z,93579.02
2019-02-08T01:19:25.869Z,93584.83
2019-02-08T01:19:48.789Z,93590.63
2019-02-08T01:20:11.709Z,93591.13
2019-02-08T01:20:34.589Z,93587.61
2019-02-08T01:20:58.089Z,93591.61
2019-02-08T01:21:21.128Z,93590.52
2019-02-08T01:21:44.191Z,93590.63
2019-02-08T01:22:07.108Z,93589.83
2019-02-08T01:22:30.309Z,93591.23
2019-02-08T01:22:53.009Z,93588.33
2019-02-08T01:23:16.489Z,93591.73
2019-02-08T01:23:41.191Z,93586.73
2019-02-08T01:24:04.369Z,93592.23
2019-02-08T01:24:27.150Z,93592.33
2019-02-08T01:24:50.109Z,93590.73
2019-02-08T01:25:13.028Z,93594.94
2019-02-08T01:25:35.829Z,93593.84
2019-02-08T01:25:58.709Z,93592.92
2019-02-08T01:26:21.569Z,93595.12
2019-02-08T01:26:44.549Z,93592.74
2019-02-08T01:27:07.769Z,93591.11
2019-02-08T01:27:30.729Z,93590.73
2019-02-08T01:27:53.588Z,93594.02
2019-02-08T01:28:16.350Z,93593.10
2019-02-08T01:28:39.309Z,93599.50
2019-02-08T01:29:02.050Z,93599.50
2019-02-08T01:29:25.069Z,93599.20
2019-02-08T01:29:48.030Z,93599.41
2019-02-08T01:30:11.009Z,93600.21
2019-02-08T01:30:33.930Z,93601.52
2019-02-08T01:30:58.050Z,93596.30
2019-02-08T01:31:21.408Z,93600.52
2019-02-08T01:31:44.389Z,93598.31
2019-02-08T01:32:07.569Z,93600.92
2019-02-08T01:32:30.509Z,93598.70
2019-02-08T01:32:53.828Z,93601.52
2019-02-08T01:33:16.609Z,93600.80
2019-02-08T01:33:39.629Z,93602.61
2019-02-08T01:34:02.511Z,93599.13
2019-02-08T01:34:25.428Z,93598.02
2019-02-08T01:34:48.409Z,93600.63
2019-02-08T01:35:11.228Z,93601.42
2019-02-08T01:35:34.128Z,93600.92
2019-02-08T01:35:57.248Z,93600.92
2019-02-08T01:36:20.329Z,93601.22
2019-02-08T01:36:43.287Z,93603.83
2019-02-08T01:37:06.149Z,93596.01
2019-02-08T01:37:29.649Z,93595.12
2019-02-08T01:37:52.489Z,93600.30
2019-02-08T01:38:15.610Z,93599.00
2019-02-08T01:38:38.369Z,93603.71
2019-02-08T01:39:01.590Z,93601.31
2019-02-08T01:39:24.549Z,93601.43
2019-02-08T01:39:47.328Z,93595.98
2019-02-08T01:40:10.294Z,93595.21
2019-02-08T01:40:33.354Z,93597.70
2019-02-08T01:40:56.149Z,93597.11
2019-02-08T01:41:19.110Z,93594.80
2019-02-08T01:41:41.909Z,93596.01
2019-02-08T01:42:05.053Z,93599.83
2019-02-08T01:42:27.969Z,93595.50
2019-02-08T01:42:50.989Z,93594.81
2019-02-08T01:43:13.889Z,93599.55
2019-02-08T01:43:36.790Z,93594.42
2019-02-08T01:43:59.669Z,93595.53
2019-02-08T01:44:23.809Z,93594.81
2019-02-08T01:44:46.709Z,93593.31
2019-02-08T01:45:09.569Z,93596.03
2019-02-08T01:45:32.494Z,93594.05
2019-02-08T01:45:55.448Z,93594.73
2019-02-08T01:46:18.556Z,93597.72
2019-02-08T01:46:41.468Z,93593.02
2019-02-08T01:47:04.447Z,93594.52
2019-02-08T01:47:27.328Z,93597.33
2019-02-08T01:47:50.367Z,93596.34
2019-02-08T01:48:13.768Z,93598.34
2019-02-08T01:48:37.190Z,93590.52
2019-02-08T01:49:00.008Z,93597.63
2019-02-08T01:49:22.859Z,93595.34
2019-02-08T01:49:46.369Z,93593.72
2019-02-08T01:50:09.729Z,93592.74
2019-02-08T01:50:32.628Z,93590.42
2019-02-08T01:50:55.791Z,93594.34
2019-02-08T01:51:18.615Z,93595.34
2019-02-08T01:51:41.569Z,93593.13
2019-02-08T01:52:04.408Z,93596.45
2019-02-08T01:52:27.329Z,93588.72
2019-02-08T01:52:50.330Z,93591.53
2019-02-08T01:53:13.330Z,93597.55
2019-02-08T01:53:36.129Z,93595.12
2019-02-08T01:53:59.308Z,93589.20
2019-02-08T01:54:22.528Z,93591.38
2019-02-08T01:54:45.529Z,93593.99
2019-02-08T01:55:08.388Z,93599.41
2019-02-08T01:55:31.236Z,93593.40
2019-02-08T01:55:55.107Z,93593.34
2019-02-08T01:56:17.988Z,93592.92
2019-02-08T01:56:40.889Z,93597.81
2019-02-08T01:57:03.609Z,93597.81
2019-02-08T01:57:26.467Z,93592.09
2019-02-08T01:57:49.428Z,93591.09
2019-02-08T01:58:12.732Z,93596.22
2019-02-08T01:58:35.709Z,93593.40
2019-02-08T01:58:58.569Z,93598.61
2019-02-08T01:59:21.740Z,93588.63
2019-02-08T01:59:44.609Z,93597.31
2019-02-08T02:00:07.509Z,93593.52
2019-02-08T02:00:30.390Z,93599.03
2019-02-08T02:00:53.309Z,93598.61
2019-02-08T02:01:16.147Z,93598.91
2019-02-08T02:01:39.129Z,93596.81
2019-02-08T02:02:01.884Z,93601.10
2019-02-08T02:02:24.708Z,93598.41
2019-02-08T02:02:48.064Z,93599.71
2019-02-08T02:03:11.091Z,93599.98
2019-02-08T02:03:33.987Z,93602.32
2019-02-08T02:03:56.953Z,93606.94
2019-02-08T02:04:19.928Z,93601.64
2019-02-08T02:04:42.888Z,93595.12
2019-02-08T02:05:05.761Z,93604.13
2019-02-08T02:05:28.589Z,93604.92
2019-02-08T02:05:51.549Z,93605.42
2019-02-08T02:06:14.390Z,93605.55
2019-02-08T02:06:37.208Z,93604.72
2019-02-08T02:07:00.208Z,93609.25
2019-02-08T02:07:23.008Z,93606.83
2019-02-08T02:07:45.909Z,93606.70
2019-02-08T02:08:09.668Z,93609.91
2019-02-08T02:08:32.812Z,93605.70
2019-02-08T02:08:55.668Z,93600.39
2019-02-08T02:09:18.628Z,93607.80
2019-02-08T02:09:41.409Z,93606.91
2019-02-08T02:10:04.128Z,93610.62
2019-02-08T02:10:27.568Z,93607.30
2019-02-08T02:10:50.369Z,93608.13
2019-02-08T02:11:13.109Z,93611.33
2019-02-08T02:11:36.010Z,93608.42
2019-02-08T02:11:58.933Z,93612.63
2019-02-08T02:12:21.709Z,93610.91
2019-02-08T02:12:44.529Z,93611.33
2019-02-08T02:13:08.851Z,93614.41
2019-02-08T02:13:31.689Z,93616.84
2019-02-08T02:13:54.551Z,93611.50
2019-02-08T02:14:18.069Z,93614.11
2019-02-08T02:14:41.037Z,93614.83
2019-02-08T02:15:03.768Z,93620.84
2019-02-08T02:15:26.668Z,93614.62
2019-02-08T02:15:49.569Z,93618.14
2019-02-08T02:16:12.448Z,93619.95
2019-02-08T02:16:35.708Z,93619.63
2019-02-08T02:16:58.569Z,93622.44
2019-02-08T02:17:22.168Z,93618.14
2019-02-08T02:17:45.128Z,93620.34
2019-02-08T02:18:08.457Z,93613.11
2019-02-08T02:18:31.261Z,93615.72
2019-02-08T02:18:54.148Z,93618.02
2019-02-08T02:19:16.951Z,93619.45
2019-02-08T02:19:39.828Z,93618.14
2019-02-08T02:20:02.611Z,93616.63
2019-02-08T02:20:25.738Z,93616.75
2019-02-08T02:20:48.608Z,93615.86
2019-02-08T02:21:11.488Z,93614.55
2019-02-08T02:21:34.438Z,93614.17
2019-02-08T02:21:57.347Z,93613.84
2019-02-08T02:22:20.168Z,93622.35
2019-02-08T02:22:43.069Z,93621.46
2019-02-08T02:23:05.929Z,93617.34
2019-02-08T02:23:29.129Z,93620.16
2019-02-08T02:23:56.204Z,93623.24
2019-02-08T02:24:16.430Z,93614.23
2019-02-08T02:24:39.270Z,93624.66
2019-02-08T02:25:02.034Z,93617.73
2019-02-08T02:25:24.909Z,93621.84
2019-02-08T02:25:47.806Z,93620.55
2019-02-08T02:26:10.728Z,93617.44
2019-02-08T02:26:33.749Z,93622.14
2019-02-08T02:26:57.089Z,93621.14
2019-02-08T02:27:19.850Z,93627.06
2019-02-08T02:27:42.849Z,93625.97
2019-02-08T02:28:05.889Z,93623.66
2019-02-08T02:28:28.735Z,93620.13
2019-02-08T02:28:51.989Z,93621.46
2019-02-08T02:29:14.849Z,93617.66
2019-02-08T02:29:37.708Z,93618.44
2019-02-08T02:30:01.079Z,93616.42
2019-02-08T02:30:24.190Z,93616.52
2019-02-08T02:30:47.380Z,93614.53
2019-02-08T02:31:10.250Z,93616.63
2019-02-08T02:31:33.548Z,93619.77
2019-02-08T02:31:56.528Z,93618.67
2019-02-08T02:32:19.472Z,93622.19
2019-02-08T02:32:42.352Z,93618.78
2019-02-08T02:33:07.154Z,93625.30
2019-02-08T02:33:30.157Z,93625.30
2019-02-08T02:33:53.409Z,93624.00
2019-02-08T02:34:16.229Z,93618.98
2019-02-08T02:34:38.948Z,93628.30
2019-02-08T02:35:02.169Z,93621.06
2019-02-08T02:35:25.011Z,93627.59
2019-02-08T02:35:48.371Z,93620.56
2019-02-08T02:36:11.188Z,93618.67
2019-02-08T02:36:34.089Z,93625.57
2019-02-08T02:36:57.214Z,93616.77
2019-02-08T02:37:20.669Z,93621.87
2019-02-08T02:37:43.448Z,93625.97
2019-02-08T02:38:06.389Z,93616.25
2019-02-08T02:38:29.394Z,93623.27
2019-02-08T02:38:52.370Z,93618.83
2019-02-08T02:39:15.209Z,93624.16
2019-02-08T02:39:38.089Z,93622.86
2019-02-08T02:40:01.008Z,93619.75
2019-02-08T02:40:23.848Z,93621.34
2019-02-08T02:40:46.726Z,93620.84
2019-02-08T02:41:09.890Z,93621.14
2019-02-08T02:41:32.728Z,93620.63
2019-02-08T02:41:55.620Z,93621.14
2019-02-08T02:42:18.629Z,93626.65
2019-02-08T02:42:41.970Z,93624.04
2019-02-08T02:43:04.829Z,93624.95
2019-02-08T02:43:27.630Z,93622.14
2019-02-08T02:43:50.490Z,93628.55
2019-02-08T02:44:13.289Z,93630.27
2019-02-08T02:44:36.230Z,93625.26
2019-02-08T02:44:59.050Z,93627.36
2019-02-08T02:45:21.969Z,93629.26
2019-02-08T02:45:44.815Z,93626.86
2019-02-08T02:46:07.610Z,93628.37
2019-02-08T02:46:30.490Z,93628.66
2019-02-08T02:46:53.356Z,93625.52
2019-02-08T02:47:16.310Z,93627.83
2019-02-08T02:47:39.209Z,93629.23
2019-02-08T02:48:02.449Z,93628.93
2019-02-08T02:48:25.332Z,93626.91
2019-02-08T02:48:48.309Z,93626.32
2019-02-08T02:49:11.648Z,93629.94
2019-02-08T02:49:34.526Z,93633.34
2019-02-08T02:49:57.888Z,93632.93
2019-02-08T02:50:20.808Z,93631.63
2019-02-08T02:50:43.750Z,93628.81
2019-02-08T02:51:06.581Z,93626.83
2019-02-08T02:51:29.649Z,93630.32
2019-02-08T02:51:52.493Z,93632.64
2019-02-08T02:52:15.347Z,93630.63
2019-02-08T02:52:38.788Z,93633.34
2019-02-08T02:53:01.523Z,93632.42
2019-02-08T02:53:24.401Z,93632.81
2019-02-08T02:53:47.369Z,93630.08
2019-02-08T02:54:10.230Z,93641.22
2019-02-08T02:54:34.011Z,93636.72
2019-02-08T02:54:57.429Z,93638.32
2019-02-08T02:55:20.419Z,93638.41
2019-02-08T02:55:43.371Z,93640.22
2019-02-08T02:56:06.210Z,93640.22
2019-02-08T02:56:30.570Z,93642.33
2019-02-08T02:56:53.429Z,93645.94
2019-02-08T02:57:16.369Z,93645.05
2019-02-08T02:57:39.215Z,93643.36
2019-02-08T02:58:02.200Z,93647.88
2019-02-08T02:58:25.010Z,93646.06
2019-02-08T02:58:47.848Z,93644.75
2019-02-08T02:59:10.663Z,93641.55
2019-02-08T02:59:34.033Z,93641.34
2019-02-08T02:59:57.009Z,93641.64
2019-02-08T03:00:19.947Z,93647.16
2019-02-08T03:00:42.719Z,93647.78
2019-02-08T03:01:05.609Z,93642.27
2019-02-08T03:01:28.491Z,93646.18
2019-02-08T03:01:51.388Z,93645.37
2019-02-08T03:02:14.248Z,93638.66
2019-02-08T03:02:37.051Z,93644.84
2019-02-08T03:02:59.972Z,93643.03
2019-02-08T03:03:22.895Z,93645.59
2019-02-08T03:03:45.970Z,93644.28
2019-02-08T03:04:08.977Z,93643.27
2019-02-08T03:04:31.829Z,93640.75
2019-02-08T03:04:54.709Z,93643.66
2019-02-08T03:05:17.807Z,93639.27
2019-02-08T03:05:40.870Z,93644.11
2019-02-08T03:06:03.648Z,93635.57
2019-02-08T03:06:26.471Z,93635.16
2019-02-08T03:06:49.428Z,93635.16
2019-02-08T03:07:12.289Z,93628.58
2019-02-08T03:07:35.129Z,93628.58
2019-02-08T03:07:57.889Z,93642.18
2019-02-08T03:08:20.689Z,93638.27
2019-02-08T03:08:43.589Z,93647.39
2019-02-08T03:09:07.009Z,93643.01
2019-02-08T03:09:29.948Z,93644.31
2019-02-08T03:09:53.089Z,93648.81
2019-02-08T03:10:15.908Z,93646.20
2019-02-08T03:10:38.768Z,93649.61
2019-02-08T03:11:01.593Z,93648.73
2019-02-08T03:11:24.471Z,93642.30
2019-02-08T03:11:47.248Z,93648.64
2019-02-08T03:12:10.589Z,93647.42
2019-02-08T03:12:33.988Z,93647.72
2019-02-08T03:12:56.910Z,93646.33
2019-02-08T03:13:20.128Z,93649.73
2019-02-08T03:13:43.008Z,93651.45
2019-02-08T03:14:06.268Z,93647.45
2019-02-08T03:14:29.572Z,93645.04
2019-02-08T03:14:52.448Z,93647.74
2019-02-08T03:15:15.688Z,93648.22
2019-02-08T03:15:39.009Z,93649.61
2019-02-08T03:16:03.310Z,93648.64
2019-02-08T03:16:26.548Z,93644.31
2019-02-08T03:16:49.448Z,93645.11
2019-02-08T03:17:12.288Z,93650.42
2019-02-08T03:17:35.549Z,93647.01
2019-02-08T03:17:58.428Z,93648.70
2019-02-08T03:18:21.628Z,93651.61
2019-02-08T03:18:44.589Z,93645.37
2019-02-08T03:19:07.369Z,93646.39
2019-02-08T03:19:30.208Z,93651.90
2019-02-08T03:19:53.135Z,93642.18
2019-02-08T03:20:16.191Z,93649.00
2019-02-08T03:20:39.489Z,93648.49
2019-02-08T03:21:02.411Z,93651.30
2019-02-08T03:21:25.348Z,93650.13
2019-02-08T03:21:48.569Z,93646.59
2019-02-08T03:22:11.409Z,93648.70
2019-02-08T03:22:34.308Z,93647.39
2019-02-08T03:22:57.168Z,93650.00
2019-02-08T03:23:20.209Z,93648.11
2019-02-08T03:23:43.049Z,93647.60
2019-02-08T03:24:12.901Z,93647.22
2019-02-08T03:24:31.308Z,93652.02
2019-02-08T03:24:54.231Z,93650.13
2019-02-08T03:25:17.289Z,93651.84
2019-02-08T03:25:40.288Z,93651.03
2019-02-08T03:26:03.044Z,93649.43
2019-02-08T03:26:26.370Z,93654.03
2019-02-08T03:26:49.109Z,93654.83
2019-02-08T03:27:12.069Z,93650.92
2019-02-08T03:27:34.787Z,93654.45
2019-02-08T03:27:57.729Z,93654.75
2019-02-08T03:28:20.908Z,93657.27
2019-02-08T03:28:43.748Z,93655.42
2019-02-08T03:29:06.575Z,93658.84
2019-02-08T03:29:29.729Z,93653.63
2019-02-08T03:29:53.882Z,93654.51
2019-02-08T03:30:18.690Z,93660.94
2019-02-08T03:30:52.396Z,93656.23
2019-02-08T03:31:15.350Z,93655.81
2019-02-08T03:31:38.170Z,93653.91
2019-02-08T03:32:01.075Z,93650.53
2019-02-08T03:32:23.965Z,93650.53
2019-02-08T03:32:47.890Z,93655.33
2019-02-08T03:33:10.814Z,93651.92
2019-02-08T03:33:34.310Z,93650.92
2019-02-08T03:33:57.133Z,93650.23
2019-02-08T03:34:19.993Z,93652.34
2019-02-08T03:34:42.950Z,93651.84
2019-02-08T03:35:05.732Z,93653.23
2019-02-08T03:35:28.558Z,93652.55
2019-02-08T03:35:51.848Z,93651.25
2019-02-08T03:36:14.808Z,93649.53
2019-02-08T03:36:37.574Z,93654.33
2019-02-08T03:37:00.368Z,93652.61
2019-02-08T03:37:23.668Z,93648.88
2019-02-08T03:37:46.409Z,93650.18
2019-02-08T03:38:09.288Z,93654.98
2019-02-08T03:38:32.408Z,93649.86
2019-02-08T03:38:56.048Z,93651.66
2019-02-08T03:39:18.988Z,93652.58
2019-02-08T03:39:41.770Z,93654.27
2019-02-08T03:40:04.648Z,93646.03
2019-02-08T03:40:27.930Z,93652.76
2019-02-08T03:40:50.810Z,93647.36
2019-02-08T03:41:13.668Z,93650.06
2019-02-08T03:41:36.570Z,93654.48
2019-02-08T03:41:59.348Z,93651.45
2019-02-08T03:42:22.210Z,93649.77
2019-02-08T03:42:45.509Z,93649.86
2019-02-08T03:43:08.930Z,93652.76
2019-02-08T03:43:31.970Z,93653.89
2019-02-08T03:43:54.851Z,93654.19
2019-02-08T03:44:18.049Z,93651.16
2019-02-08T03:44:40.969Z,93652.55
2019-02-08T03:45:03.689Z,93656.88
2019-02-08T03:45:28.130Z,93656.88
2019-02-08T03:45:52.576Z,93654.73
2019-02-08T03:46:15.633Z,93659.92
2019-02-08T03:46:38.449Z,93657.64
2019-02-08T03:47:01.369Z,93665.17
2019-02-08T03:47:24.328Z,93665.89
2019-02-08T03:47:47.288Z,93663.66
2019-02-08T03:48:10.148Z,93664.25
2019-02-08T03:48:33.028Z,93665.34
2019-02-08T03:48:55.971Z,93667.06
2019-02-08T03:49:18.929Z,93670.98
2019-02-08T03:49:41.748Z,93676.29
2019-02-08T03:50:04.589Z,93673.48
2019-02-08T03:50:27.618Z,93678.19
2019-02-08T03:50:50.431Z,93676.80
2019-02-08T03:51:13.209Z,93676.71
2019-02-08T03:51:36.029Z,93677.75
2019-02-08T03:51:58.907Z,93677.63
2019-02-08T03:52:22.330Z,93680.53
2019-02-08T03:52:45.230Z,93678.31
2019-02-08T03:53:08.069Z,93679.31
2019-02-08T03:53:31.018Z,93677.22
2019-02-08T03:53:54.048Z,93676.63
2019-02-08T03:54:21.126Z,93677.72
2019-02-08T03:54:41.295Z,93677.52
2019-02-08T03:55:04.178Z,93676.00
2019-02-08T03:55:27.088Z,93674.78
2019-02-08T03:55:58.002Z,93679.62
2019-02-08T03:56:14.929Z,93674.31
2019-02-08T03:56:37.827Z,93677.72
2019-02-08T03:57:00.669Z,93682.14
2019-02-08T03:57:23.508Z,93676.45
2019-02-08T03:57:46.250Z,93678.84
2019-02-08T03:58:09.269Z,93677.45
2019-02-08T03:58:32.197Z,93679.86
2019-02-08T03:58:55.549Z,93684.66
2019-02-08T03:59:18.510Z,93687.89
2019-02-08T03:59:41.888Z,93680.66
2019-02-08T04:00:04.811Z,93681.01
2019-02-08T04:00:29.218Z,93681.87
2019-02-08T04:01:02.800Z,93682.08
2019-02-08T04:01:25.668Z,93684.48
2019-02-08T04:01:48.552Z,93678.47
2019-02-08T04:02:11.653Z,93681.19
2019-02-08T04:02:34.648Z,93672.06
2019-02-08T04:02:59.267Z,93676.06
2019-02-08T04:03:22.131Z,93676.66
2019-02-08T04:03:44.988Z,93676.23
2019-02-08T04:04:08.448Z,93674.55
2019-02-08T04:04:31.268Z,93677.45
2019-02-08T04:04:54.070Z,93673.84
2019-02-08T04:05:17.270Z,93673.25
2019-02-08T04:05:40.229Z,93674.16
2019-02-08T04:06:02.928Z,93675.27
2019-02-08T04:06:25.768Z,93673.25
2019-02-08T04:06:48.568Z,93676.23
2019-02-08T04:07:11.467Z,93673.25
2019-02-08T04:07:34.869Z,93677.16
2019-02-08T04:07:57.870Z,93679.44
2019-02-08T04:08:20.816Z,93677.96
2019-02-08T04:08:43.630Z,93677.27
2019-02-08T04:09:06.730Z,93672.59
2019-02-08T04:09:29.628Z,93675.49
2019-02-08T04:09:52.547Z,93674.89
2019-02-08T04:10:15.449Z,93679.01
2019-02-08T04:10:38.530Z,93672.99
2019-02-08T04:11:01.373Z,93673.59
2019-02-08T04:11:24.233Z,93677.80
2019-02-08T04:11:47.148Z,93674.00
2019-02-08T04:12:10.110Z,93681.53
2019-02-08T04:12:33.028Z,93680.52
2019-02-08T04:12:55.749Z,93676.50
2019-02-08T04:13:18.707Z,93679.70
2019-02-08T04:13:41.887Z,93680.30
2019-02-08T04:14:04.868Z,93678.49
2019-02-08T04:14:27.649Z,93674.87
2019-02-08T04:14:50.770Z,93674.87
2019-02-08T04:15:14.049Z,93680.51
2019-02-08T04:15:37.029Z,93676.27
2019-02-08T04:16:00.028Z,93676.59
2019-02-08T04:16:22.928Z,93679.59
2019-02-08T04:16:45.750Z,93675.27
2019-02-08T04:17:08.608Z,93678.16
2019-02-08T04:17:31.972Z,93676.86
2019-02-08T04:17:55.048Z,93680.56
2019-02-08T04:18:18.411Z,93673.54
2019-02-08T04:18:42.587Z,93675.91
2019-02-08T04:19:06.098Z,93674.39
2019-02-08T04:19:29.090Z,93675.99
2019-02-08T04:19:51.990Z,93667.45
2019-02-08T04:20:14.849Z,93671.52
2019-02-08T04:20:37.649Z,93671.44
2019-02-08T04:21:00.553Z,93675.77
2019-02-08T04:21:23.349Z,93669.45
2019-02-08T04:21:46.228Z,93673.92
2019-02-08T04:22:09.088Z,93669.00
2019-02-08T04:22:31.969Z,93673.63
2019-02-08T04:22:55.290Z,93670.22
2019-02-08T04:23:18.128Z,93674.22
2019-02-08T04:23:41.368Z,93673.22
2019-02-08T04:24:04.130Z,93676.71
2019-02-08T04:24:29.867Z,93678.90
2019-02-08T04:24:51.650Z,93680.29
2019-02-08T04:25:14.428Z,93678.48
2019-02-08T04:25:37.267Z,93683.70
2019-02-08T04:26:00.768Z,93681.92
2019-02-08T04:26:24.128Z,93675.79
2019-02-08T04:26:47.528Z,93677.59
2019-02-08T04:27:10.467Z,93679.61
2019-02-08T04:27:33.208Z,93678.30
2019-02-08T04:27:56.148Z,93676.59
2019-02-08T04:28:19.508Z,93684.42
2019-02-08T04:28:42.350Z,93679.50
2019-02-08T04:29:05.169Z,93679.20
2019-02-08T04:29:28.067Z,93686.22
2019-02-08T04:29:50.928Z,93687.14
2019-02-08T04:30:13.827Z,93684.71
2019-02-08T04:30:36.851Z,93686.14
2019-02-08T04:30:59.752Z,93689.93